Time;durP1;ratioP1;P1;durP2;ratioP2;P2;SDS_P1;SDS_P2;PMS_P1;PMS_P2;Temp;Humidity;BMP_temperature;BMP_pressure;BME280_temperature;BME280_humidity;BME280_pressure;Samples;Min_cycle;Max_cycle;Signal;HPM_P1;HPM_P2
2022/11/26 00:00:14;;;;;;;41.67;18.38;;;5.20;99.90;;;;;;5047377;28;20048;-55
2022/11/26 00:02:40;;;;;;;36.67;18.35;;;5.30;99.90;;;;;;5054479;28;20045;-55
2022/11/26 00:05:09;;;;;;;34.50;17.10;;;5.30;99.90;;;;;;5051309;28;20469;-56
2022/11/26 00:07:34;;;;;;;33.88;17.83;;;5.20;99.90;;;;;;5053510;28;20041;-53
2022/11/26 00:10:01;;;;;;;40.78;18.48;;;5.20;99.90;;;;;;5054239;28;20041;-56
2022/11/26 00:12:33;;;;;;;39.30;19.67;;;5.30;99.90;;;;;;5054295;28;20094;-56
2022/11/26 00:15:21;;;;;;;38.08;18.45;;;5.20;99.90;;;;;;5050111;28;20103;-52
2022/11/26 00:17:48;;;;;;;36.85;18.35;;;5.20;99.90;;;;;;5055524;28;20109;-57
2022/11/26 00:20:14;;;;;;;42.33;18.23;;;5.20;99.90;;;;;;5054631;28;20044;-57
2022/11/26 00:22:52;;;;;;;37.55;18.98;;;5.10;99.90;;;;;;5051054;28;20291;-54
2022/11/26 00:25:23;;;;;;;52.72;20.45;;;5.20;99.90;;;;;;5050623;28;20049;-56
2022/11/26 00:27:54;;;;;;;42.83;19.80;;;5.20;99.90;;;;;;5046800;28;20110;-54
2022/11/26 00:30:25;;;;;;;38.65;18.85;;;5.20;99.90;;;;;;5049779;28;20087;-56
2022/11/26 00:32:52;;;;;;;36.65;18.70;;;5.10;99.90;;;;;;5046142;28;20148;-57
2022/11/26 00:35:19;;;;;;;39.63;20.30;;;5.10;99.90;;;;;;5047785;28;20048;-53
2022/11/26 00:37:51;;;;;;;41.65;19.45;;;5.10;99.90;;;;;;5046701;28;20040;-53
2022/11/26 00:40:26;;;;;;;47.55;21.10;;;5.10;99.90;;;;;;5047151;28;20044;-55
2022/11/26 00:42:53;;;;;;;42.47;19.33;;;5.10;99.90;;;;;;5063087;28;20045;-55
2022/11/26 00:45:25;;;;;;;44.28;20.63;;;5.00;99.90;;;;;;5049268;28;20411;-53
2022/11/26 00:47:51;;;;;;;40.28;19.52;;;5.10;99.90;;;;;;5045505;28;20110;-54
2022/11/26 00:50:22;;;;;;;39.08;19.90;;;5.10;99.90;;;;;;5046798;28;20037;-53
2022/11/26 00:52:51;;;;;;;46.17;19.90;;;5.10;99.90;;;;;;5048062;28;20048;-53
2022/11/26 00:55:27;;;;;;;33.95;19.60;;;5.00;99.90;;;;;;5048026;28;20119;-52
2022/11/26 00:57:54;;;;;;;45.35;19.83;;;5.10;99.90;;;;;;5047121;28;20084;-53
2022/11/26 01:00:23;;;;;;;40.78;19.23;;;5.00;99.90;;;;;;5048685;28;20033;-56
2022/11/26 01:02:49;;;;;;;38.70;19.35;;;4.90;99.90;;;;;;5044491;28;20056;-55
2022/11/26 01:05:15;;;;;;;37.38;18.88;;;4.90;99.90;;;;;;5045858;28;20044;-55
2022/11/26 01:07:41;;;;;;;39.25;20.17;;;5.00;99.90;;;;;;5047363;28;20411;-56
2022/11/26 01:10:31;;;;;;;34.72;17.92;;;4.90;99.90;;;;;;5045443;28;20049;-54
2022/11/26 01:12:56;;;;;;;35.63;18.48;;;4.80;99.90;;;;;;5048330;28;20041;-57
2022/11/26 01:15:24;;;;;;;38.58;19.73;;;4.80;99.90;;;;;;5052415;28;20049;-56
2022/11/26 01:17:51;;;;;;;40.90;18.77;;;4.90;99.90;;;;;;5053113;28;20076;-56
2022/11/26 01:20:29;;;;;;;38.35;19.83;;;5.10;99.90;;;;;;5051288;28;20128;-51
2022/11/26 01:22:57;;;;;;;41.33;20.60;;;4.90;99.90;;;;;;5053710;28;20040;-55
2022/11/26 01:25:24;;;;;;;43.15;21.02;;;5.10;99.90;;;;;;5053825;28;20044;-51
2022/11/26 01:27:51;;;;;;;40.20;19.55;;;4.80;99.90;;;;;;5053605;28;20041;-52
2022/11/26 01:30:25;;;;;;;44.78;19.27;;;4.90;99.90;;;;;;5053331;28;20530;-55
2022/11/26 01:32:51;;;;;;;42.35;19.88;;;4.80;99.90;;;;;;5053466;28;20040;-55
2022/11/26 01:35:19;;;;;;;42.78;19.75;;;4.90;99.90;;;;;;5052519;28;20043;-55
2022/11/26 01:37:45;;;;;;;38.45;19.48;;;5.10;99.90;;;;;;5053367;28;20048;-56
2022/11/26 01:40:36;;;;;;;34.03;18.25;;;4.70;99.90;;;;;;5052918;28;20033;-54
2022/11/26 01:43:22;;;;;;;38.22;19.13;;;5.10;99.90;;;;;;5048186;28;20029;-56
2022/11/26 01:45:48;;;;;;;37.60;18.75;;;5.10;99.90;;;;;;5050639;28;20139;-52
2022/11/26 01:48:28;;;;;;;39.33;19.20;;;5.20;99.90;;;;;;5047521;28;20124;-56
2022/11/26 01:50:56;;;;;;;41.78;18.77;;;4.80;99.90;;;;;;5044816;28;20128;-51
2022/11/26 01:53:37;;;;;;;34.67;17.83;;;4.90;99.90;;;;;;5045627;28;20499;-51
2022/11/26 01:56:15;;;;;;;44.00;19.40;;;4.60;99.90;;;;;;5046583;28;20048;-53
2022/11/26 01:58:49;;;;;;;42.40;19.05;;;4.70;99.90;;;;;;5045642;28;20428;-51
2022/11/26 02:01:16;;;;;;;31.23;17.48;;;4.80;99.90;;;;;;5048098;28;20064;-55
2022/11/26 02:03:53;;;;;;;37.88;18.70;;;4.90;99.90;;;;;;5047750;28;20047;-54
2022/11/26 02:06:24;;;;;;;35.33;19.35;;;5.10;99.90;;;;;;5045683;28;20083;-56
2022/11/26 02:08:50;;;;;;;41.20;19.73;;;4.70;99.90;;;;;;5046924;28;20037;-53
2022/11/26 02:11:20;;;;;;;38.80;18.83;;;4.70;99.90;;;;;;5045014;28;20041;-57
2022/11/26 02:13:48;;;;;;;42.50;19.30;;;4.60;99.90;;;;;;5048697;28;20091;-55
2022/11/26 02:16:25;;;;;;;43.72;19.42;;;4.70;99.90;;;;;;5046082;28;20385;-55
2022/11/26 02:19:30;;;;;;;42.25;18.77;;;4.80;99.90;;;;;;5047438;28;20028;-53
2022/11/26 02:22:14;;;;;;;41.20;19.45;;;4.60;99.90;;;;;;5046666;28;20060;-54
2022/11/26 02:24:43;;;;;;;31.67;17.90;;;4.90;99.90;;;;;;5046603;28;20033;-56
2022/11/26 02:27:11;;;;;;;34.70;18.73;;;4.80;99.90;;;;;;5044925;28;20048;-55
2022/11/26 02:30:05;;;;;;;39.22;18.25;;;4.70;99.90;;;;;;5047114;28;20510;-52
2022/11/26 02:32:42;;;;;;;37.58;17.98;;;4.90;99.90;;;;;;5046440;28;20056;-53
2022/11/26 02:35:11;;;;;;;34.88;18.08;;;4.90;99.90;;;;;;5047138;28;20075;-53
2022/11/26 02:37:46;;;;;;;37.88;18.58;;;4.50;99.90;;;;;;5045672;28;20136;-55
2022/11/26 02:40:11;;;;;;;45.40;19.55;;;4.50;99.90;;;;;;5047026;28;20487;-54
2022/11/26 02:42:37;;;;;;;43.03;19.77;;;4.70;99.90;;;;;;5046330;28;20039;-52
2022/11/26 02:45:10;;;;;;;43.42;19.70;;;4.90;99.90;;;;;;5046732;28;20144;-55
2022/11/26 02:47:39;;;;;;;32.38;17.38;;;4.60;99.90;;;;;;5047926;28;20099;-56
2022/11/26 02:50:21;;;;;;;43.25;19.30;;;5.00;99.90;;;;;;5043719;28;20132;-54
2022/11/26 02:52:49;;;;;;;35.10;19.45;;;5.00;99.90;;;;;;5045825;28;20139;-57
2022/11/26 02:55:17;;;;;;;40.83;20.02;;;4.50;99.90;;;;;;5049642;28;20040;-53
2022/11/26 02:57:48;;;;;;;44.13;20.27;;;4.70;99.90;;;;;;5046822;28;20044;-52
2022/11/26 03:00:15;;;;;;;42.88;20.15;;;;;;;;;;5046186;28;20051;-52
2022/11/26 03:02:48;;;;;;;42.72;19.80;;;;;;;;;;5045984;28;20095;-53
2022/11/26 03:05:17;;;;;;;41.33;19.27;;;;;;;;;;5045637;28;20041;-55
2022/11/26 03:07:45;;;;;;;38.25;19.40;;;;;;;;;;5045073;28;20574;-55
2022/11/26 03:10:13;;;;;;;45.20;20.92;;;;;;;;;;5046941;28;20036;-56
2022/11/26 03:12:40;;;;;;;44.63;17.73;;;;;;;;;;5046340;28;20041;-54
2022/11/26 03:15:07;;;;;;;41.28;19.63;;;;;;;;;;5051209;28;20080;-56
2022/11/26 03:17:34;;;;;;;34.22;19.45;;;;;;;;;;5051888;28;20045;-55
2022/11/26 03:20:02;;;;;;;44.90;19.90;;;;;;;;;;5051595;28;20063;-56
2022/11/26 03:22:29;;;;;;;42.55;20.60;;;;;;;;;;5051661;28;20391;-57
2022/11/26 03:24:56;;;;;;;35.05;18.42;;;;;;;;;;5052196;28;20127;-54
2022/11/26 03:27:23;;;;;;;32.58;16.92;;;;;;;;;;5051988;28;20047;-56
2022/11/26 03:29:51;;;;;;;43.67;19.13;;;;;;;;;;5052139;28;20045;-56
2022/11/26 03:32:17;;;;;;;38.40;17.80;;;;;;;;;;5052271;28;20041;-52
2022/11/26 03:34:44;;;;;;;41.75;18.73;;;;;;;;;;5050549;28;20045;-55
2022/11/26 03:37:11;;;;;;;42.63;18.55;;;;;;;;;;5050983;28;20041;-55
2022/11/26 03:39:38;;;;;;;40.63;19.92;;;;;;;;;;5054641;28;20041;-53
2022/11/26 03:42:05;;;;;;;40.40;20.98;;;;;;;;;;5055569;28;20048;-56
2022/11/26 03:44:32;;;;;;;44.08;19.98;;;;;;;;;;5054858;28;20053;-52
2022/11/26 03:46:59;;;;;;;41.90;19.42;;;;;;;;;;5051279;28;20045;-55
2022/11/26 03:49:26;;;;;;;43.13;19.65;;;;;;;;;;5048312;28;20384;-54
2022/11/26 03:51:53;;;;;;;40.63;18.88;;;;;;;;;;5050003;28;20507;-51
2022/11/26 03:54:20;;;;;;;43.30;19.67;;;;;;;;;;5050147;28;20476;-56
2022/11/26 03:56:47;;;;;;;33.30;18.70;;;;;;;;;;5031091;28;20055;-56
2022/11/26 03:59:13;;;;;;;44.40;20.08;;;;;;;;;;5051864;28;20048;-52
2022/11/26 04:01:40;;;;;;;43.58;20.27;;;;;;;;;;5048096;28;20201;-53
2022/11/26 04:04:07;;;;;;;40.95;19.08;;;;;;;;;;5047433;28;20427;-55
2022/11/26 04:06:34;;;;;;;51.45;22.00;;;;;;;;;;5048602;28;20802;-52
2022/11/26 04:09:01;;;;;;;37.60;20.17;;;;;;;;;;5049228;28;20048;-52
2022/11/26 04:11:28;;;;;;;41.33;19.55;;;;;;;;;;5047784;28;20052;-52
2022/11/26 04:13:55;;;;;;;43.13;21.17;;;;;;;;;;5049187;28;20092;-55
2022/11/26 04:16:22;;;;;;;43.20;20.77;;;;;;;;;;5048703;28;20057;-57
2022/11/26 04:18:48;;;;;;;46.63;20.83;;;;;;;;;;5048866;28;20057;-56
2022/11/26 04:21:14;;;;;;;40.10;20.25;;;4.70;99.90;;;;;;5049384;28;20483;-56
2022/11/26 04:23:40;;;;;;;45.78;20.35;;;4.70;99.90;;;;;;5051804;28;20041;-56
2022/11/26 04:26:05;;;;;;;43.88;19.55;;;4.60;99.90;;;;;;5069280;28;20090;-53
2022/11/26 04:28:31;;;;;;;48.80;20.60;;;4.80;99.90;;;;;;5047768;28;21803;-56
2022/11/26 04:30:56;;;;;;;41.45;21.40;;;4.80;99.90;;;;;;5048591;28;20079;-55
2022/11/26 04:33:22;;;;;;;37.03;20.85;;;4.80;99.90;;;;;;5051114;28;20128;-56
2022/11/26 04:35:49;;;;;;;50.15;23.00;;;4.50;99.90;;;;;;5050266;28;20069;-55
2022/11/26 04:38:17;;;;;;;50.85;21.48;;;;;;;;;;5051144;28;20036;-56
2022/11/26 04:40:45;;;;;;;61.08;22.20;;;;;;;;;;5048546;28;20222;-55
2022/11/26 04:43:11;;;;;;;55.30;24.60;;;;;;;;;;5048999;28;20474;-55
2022/11/26 04:45:37;;;;;;;54.28;23.05;;;;;;;;;;5047771;28;20053;-51
2022/11/26 04:48:03;;;;;;;45.92;22.55;;;;;;;;;;5048974;28;20129;-55
2022/11/26 04:50:29;;;;;;;50.85;21.35;;;;;;;;;;5048232;28;20226;-53
2022/11/26 04:52:55;;;;;;;49.40;22.45;;;;;;;;;;5048313;28;20067;-53
2022/11/26 04:55:25;;;;;;;56.67;22.30;;;;;;;;;;5049286;28;20037;-56
2022/11/26 04:57:54;;;;;;;37.72;20.70;;;;;;;;;;5049294;28;20095;-51
2022/11/26 05:00:22;;;;;;;44.30;21.08;;;;;;;;;;5047326;28;20044;-52
2022/11/26 05:02:48;;;;;;;45.55;20.60;;;4.30;99.90;;;;;;5048540;28;20044;-51
2022/11/26 05:05:14;;;;;;;48.40;20.77;;;4.30;99.90;;;;;;5047888;28;20040;-52
2022/11/26 05:07:39;;;;;;;49.17;22.92;;;4.60;99.90;;;;;;5045327;28;20059;-51
2022/11/26 05:10:07;;;;;;;62.33;24.60;;;4.50;99.90;;;;;;5045664;28;20888;-56
2022/11/26 05:12:33;;;;;;;42.35;22.55;;;4.60;99.90;;;;;;5048730;28;20081;-53
2022/11/26 05:14:58;;;;;;;52.97;22.73;;;4.60;99.90;;;;;;5047477;28;20502;-51
2022/11/26 05:17:24;;;;;;;49.42;22.95;;;4.50;99.90;;;;;;5067162;28;20085;-51
2022/11/26 05:19:49;;;;;;;56.83;24.35;;;4.30;99.90;;;;;;5052477;28;20049;-52
2022/11/26 05:22:15;;;;;;;49.90;23.75;;;4.20;99.90;;;;;;5052452;28;20376;-52
2022/11/26 05:24:41;;;;;;;48.05;23.75;;;4.30;99.90;;;;;;5052209;28;20049;-54
2022/11/26 05:27:06;;;;;;;48.45;24.10;;;4.40;99.90;;;;;;5051364;28;20059;-55
2022/11/26 05:29:32;;;;;;;53.25;24.58;;;4.50;99.90;;;;;;5052293;28;20125;-55
2022/11/26 05:31:58;;;;;;;51.35;23.55;;;4.40;99.90;;;;;;5052719;28;20422;-53
2022/11/26 05:34:24;;;;;;;48.33;22.88;;;4.30;99.90;;;;;;5052012;28;20052;-52
2022/11/26 05:36:49;;;;;;;54.63;24.85;;;4.40;99.90;;;;;;5052047;28;20112;-56
2022/11/26 05:39:15;;;;;;;54.85;25.65;;;4.30;99.90;;;;;;5052852;28;20036;-54
2022/11/26 05:41:41;;;;;;;54.70;26.35;;;4.40;99.90;;;;;;5052169;28;20120;-51
2022/11/26 05:44:07;;;;;;;57.25;26.15;;;4.40;99.90;;;;;;5050394;28;20411;-53
2022/11/26 05:46:33;;;;;;;46.03;23.98;;;4.50;99.90;;;;;;5047531;28;20435;-54
2022/11/26 05:48:58;;;;;;;53.88;25.13;;;4.40;99.90;;;;;;5046666;28;20052;-57
2022/11/26 05:51:24;;;;;;;50.38;24.25;;;4.40;99.90;;;;;;5045965;28;20056;-56
2022/11/26 05:53:50;;;;;;;54.45;24.85;;;4.30;99.90;;;;;;5047618;28;20056;-51
2022/11/26 05:56:15;;;;;;;52.55;25.70;;;4.30;99.90;;;;;;5046410;28;20479;-53
2022/11/26 05:58:42;;;;;;;63.92;26.73;;;4.40;99.90;;;;;;5048226;28;20044;-53
2022/11/26 06:01:08;;;;;;;59.22;26.10;;;4.30;99.90;;;;;;5048033;28;20083;-54
2022/11/26 06:03:34;;;;;;;54.58;25.20;;;4.30;99.90;;;;;;5047419;28;20630;-54
2022/11/26 06:06:00;;;;;;;44.97;23.83;;;4.30;99.90;;;;;;5044576;28;20071;-55
2022/11/26 06:08:26;;;;;;;41.92;22.10;;;4.30;99.90;;;;;;5045956;28;20408;-55
2022/11/26 06:10:52;;;;;;;58.60;25.08;;;4.30;99.90;;;;;;5047489;28;20047;-54
2022/11/26 06:13:18;;;;;;;49.88;24.42;;;4.40;99.90;;;;;;5049162;28;20059;-52
2022/11/26 06:15:43;;;;;;;48.47;23.35;;;4.40;99.90;;;;;;5046126;28;20147;-56
2022/11/26 06:18:09;;;;;;;44.92;23.20;;;4.40;99.90;;;;;;5046396;28;20084;-53
2022/11/26 06:20:36;;;;;;;42.90;22.70;;;4.30;99.90;;;;;;5061852;28;20037;-53
2022/11/26 06:23:01;;;;;;;49.15;23.67;;;4.30;99.90;;;;;;5046334;28;20041;-52
2022/11/26 06:25:27;;;;;;;51.33;23.92;;;4.40;99.90;;;;;;5048056;28;20047;-54
2022/11/26 06:27:54;;;;;;;46.92;23.70;;;4.30;99.90;;;;;;5046317;28;20037;-51
2022/11/26 06:30:20;;;;;;;47.60;24.63;;;4.50;99.90;;;;;;5046747;28;20507;-55
2022/11/26 06:32:46;;;;;;;48.88;24.00;;;4.40;99.90;;;;;;5044715;28;20049;-55
2022/11/26 06:35:11;;;;;;;50.95;24.50;;;4.40;99.90;;;;;;5045453;28;20048;-56
2022/11/26 06:37:37;;;;;;;48.88;24.60;;;4.30;99.90;;;;;;5047699;28;20372;-52
2022/11/26 06:40:03;;;;;;;61.65;25.23;;;4.30;99.90;;;;;;5045629;28;20041;-52
2022/11/26 06:42:29;;;;;;;58.50;26.85;;;4.40;99.90;;;;;;5047770;28;20091;-56
2022/11/26 06:44:54;;;;;;;64.68;27.50;;;4.40;99.90;;;;;;5048167;28;20049;-55
2022/11/26 06:47:20;;;;;;;63.20;26.45;;;4.30;99.90;;;;;;5044973;28;20040;-51
2022/11/26 06:49:45;;;;;;;81.78;29.35;;;4.40;99.90;;;;;;5045486;28;20039;-52
2022/11/26 06:52:12;;;;;;;75.85;26.60;;;4.40;99.90;;;;;;5049828;28;20515;-52
2022/11/26 06:54:37;;;;;;;92.80;32.00;;;4.30;99.90;;;;;;5046133;28;20032;-53
2022/11/26 06:57:03;;;;;;;73.90;27.05;;;4.50;99.90;;;;;;5045653;28;20486;-56
2022/11/26 06:59:29;;;;;;;77.20;28.83;;;4.30;99.90;;;;;;5044120;28;20048;-54
2022/11/26 07:01:54;;;;;;;73.30;28.85;;;4.30;99.90;;;;;;5048231;28;20033;-55
2022/11/26 07:04:20;;;;;;;79.60;30.05;;;4.40;99.90;;;;;;5047630;28;20039;-53
2022/11/26 07:06:45;;;;;;;82.78;28.65;;;4.40;99.90;;;;;;5045189;28;20411;-55
2022/11/26 07:09:12;;;;;;;78.95;29.65;;;4.40;99.90;;;;;;5046977;28;20044;-54
2022/11/26 07:11:39;;;;;;;87.93;31.45;;;4.40;99.90;;;;;;5050925;28;20049;-53
2022/11/26 07:14:05;;;;;;;78.18;29.55;;;4.30;99.90;;;;;;5052629;28;20067;-55
2022/11/26 07:16:31;;;;;;;65.32;28.98;;;4.30;99.90;;;;;;5056074;28;20115;-56
2022/11/26 07:18:57;;;;;;;69.32;30.17;;;4.40;99.90;;;;;;5054866;28;20095;-52
2022/11/26 07:21:24;;;;;;;69.93;30.45;;;4.40;99.90;;;;;;5054174;28;20072;-53
2022/11/26 07:23:50;;;;;;;71.05;31.17;;;4.40;99.90;;;;;;5054291;28;20048;-53
2022/11/26 07:26:17;;;;;;;86.38;31.05;;;4.30;99.90;;;;;;5054672;28;20045;-53
2022/11/26 07:28:45;;;;;;;67.53;29.38;;;4.30;99.90;;;;;;5055432;28;20041;-50
2022/11/26 07:31:13;;;;;;;66.80;29.17;;;4.40;99.90;;;;;;5054564;28;20110;-51
2022/11/26 07:33:39;;;;;;;72.72;29.63;;;4.50;99.90;;;;;;5055437;28;20045;-55
2022/11/26 07:36:17;;;;;;;67.15;30.05;;;4.50;99.90;;;;;;5054945;28;20052;-51
2022/11/26 07:38:43;;;;;;;81.20;31.33;;;4.50;99.90;;;;;;5052565;28;20045;-56
2022/11/26 07:41:11;;;;;;;75.03;30.40;;;4.50;99.90;;;;;;5052546;28;20048;-54
2022/11/26 07:43:39;;;;;;;70.35;32.15;;;4.40;99.90;;;;;;5054114;28;20044;-55
2022/11/26 07:46:06;;;;;;;74.95;31.25;;;4.60;99.90;;;;;;5054525;28;20067;-52
2022/11/26 07:48:33;;;;;;;80.68;31.05;;;;;;;;;;5036188;28;20045;-55
2022/11/26 07:50:59;;;;;;;96.25;34.72;;;4.60;99.90;;;;;;5052935;28;20049;-52
2022/11/26 07:53:30;;;;;;;88.80;33.33;;;4.70;99.90;;;;;;5054758;28;20499;-54
2022/11/26 07:55:55;;;;;;;75.22;32.17;;;4.70;99.90;;;;;;5051010;28;20463;-53
2022/11/26 07:58:21;;;;;;;86.55;34.40;;;4.80;99.90;;;;;;5050509;28;20048;-53
2022/11/26 08:00:46;;;;;;;101.15;35.85;;;4.80;99.90;;;;;;5045760;28;20043;-54
2022/11/26 08:03:12;;;;;;;90.80;33.72;;;4.70;99.90;;;;;;5041341;28;21137;-54
2022/11/26 08:05:42;;;;;;;81.28;32.65;;;4.70;99.90;;;;;;5044349;28;20048;-54
2022/11/26 08:08:09;;;;;;;98.47;33.72;;;4.90;99.90;;;;;;5044602;28;20033;-52
2022/11/26 08:10:34;;;;;;;103.55;34.58;;;4.80;99.90;;;;;;5044825;28;20494;-56
2022/11/26 08:13:00;;;;;;;90.03;33.72;;;5.00;99.90;;;;;;5047717;28;20033;-56
2022/11/26 08:15:26;;;;;;;78.72;31.95;;;4.90;99.90;;;;;;5046748;28;20069;-52
2022/11/26 08:17:56;;;;;;;83.50;32.45;;;5.00;99.90;;;;;;5049226;28;20588;-53
2022/11/26 08:20:22;;;;;;;110.57;37.38;;;5.00;99.90;;;;;;5048945;28;20049;-54
2022/11/26 08:22:48;;;;;;;93.80;34.13;;;5.10;99.90;;;;;;5041697;28;20572;-55
2022/11/26 08:25:13;;;;;;;89.85;35.70;;;5.00;99.90;;;;;;5046050;28;20082;-56
2022/11/26 08:27:39;;;;;;;100.97;36.70;;;5.10;99.90;;;;;;5045049;28;20383;-55
2022/11/26 08:30:06;;;;;;;111.30;38.40;;;5.10;99.90;;;;;;5046159;28;20068;-51
2022/11/26 08:32:33;;;;;;;84.32;34.72;;;5.30;99.90;;;;;;4695861;22;20128;-52
2022/11/26 08:34:58;;;;;;;85.40;34.58;;;5.20;99.90;;;;;;5046539;28;20123;-53
2022/11/26 08:37:24;;;;;;;103.22;36.15;;;5.30;99.90;;;;;;5044863;28;20053;-53
2022/11/26 08:39:50;;;;;;;106.15;38.63;;;5.20;99.90;;;;;;5046937;28;20044;-52
2022/11/26 08:42:15;;;;;;;90.75;36.60;;;5.40;99.90;;;;;;5049086;28;20033;-55
2022/11/26 08:44:42;;;;;;;95.18;36.00;;;5.30;99.90;;;;;;5049110;28;20453;-50
2022/11/26 08:47:08;;;;;;;98.93;37.10;;;5.50;99.90;;;;;;5046973;28;20087;-55
2022/11/26 08:49:33;;;;;;;111.13;37.47;;;5.40;99.90;;;;;;5048133;28;20052;-54
2022/11/26 08:51:59;;;;;;;117.28;37.55;;;5.60;99.90;;;;;;5047624;28;20039;-55
2022/11/26 08:54:25;;;;;;;98.38;38.53;;;5.50;99.90;;;;;;5046698;28;20098;-55
2022/11/26 08:56:50;;;;;;;90.15;34.85;;;5.50;99.90;;;;;;5050219;28;20045;-52
2022/11/26 08:59:18;;;;;;;103.70;39.65;;;5.60;99.90;;;;;;5053379;28;20434;-55
2022/11/26 09:01:44;;;;;;;94.55;37.92;;;5.70;99.90;;;;;;5052749;28;20049;-54
2022/11/26 09:04:10;;;;;;;108.15;39.30;;;5.80;99.90;;;;;;5050819;28;20158;-54
2022/11/26 09:06:35;;;;;;;96.07;37.47;;;5.80;99.90;;;;;;5047037;28;20477;-54
2022/11/26 09:09:12;;;;;;;110.18;40.25;;;5.80;99.90;;;;;;5044162;28;20368;-52
2022/11/26 09:11:58;;;;;;;116.40;39.42;;;5.80;99.90;;;;;;5046086;28;20033;-54
2022/11/26 09:14:26;;;;;;;100.95;38.38;;;5.90;99.90;;;;;;5037943;28;20079;-56
2022/11/26 09:16:54;;;;;;;104.30;37.80;;;5.80;99.90;;;;;;5029121;28;20041;-54
2022/11/26 09:19:20;;;;;;;99.20;38.25;;;6.00;99.90;;;;;;5034080;28;20553;-52
2022/11/26 09:21:46;;;;;;;110.80;38.80;;;6.00;99.90;;;;;;5051020;28;20041;-56
2022/11/26 09:24:12;;;;;;;112.85;38.88;;;6.00;99.90;;;;;;5052756;28;20119;-55
2022/11/26 09:26:38;;;;;;;108.57;38.28;;;5.90;99.90;;;;;;5053239;28;20178;-53
2022/11/26 09:29:03;;;;;;;107.15;38.28;;;6.00;99.90;;;;;;5053083;28;20083;-56
2022/11/26 09:31:29;;;;;;;125.20;41.58;;;6.00;99.90;;;;;;5035043;28;20721;-56
2022/11/26 09:34:00;;;;;;;101.40;40.08;;;6.00;99.90;;;;;;5052662;28;20467;-54
2022/11/26 09:36:26;;;;;;;128.38;42.03;;;6.20;99.90;;;;;;5051963;28;20163;-55
2022/11/26 09:38:56;;;;;;;120.55;41.65;;;6.20;99.90;;;;;;5052050;28;20045;-56
2022/11/26 09:41:29;;;;;;;133.13;41.65;;;;;;;;;;5050005;28;20036;-52
2022/11/26 09:44:06;;;;;;;110.97;41.80;;;6.30;99.90;;;;;;5054368;28;20049;-53
2022/11/26 09:46:53;;;;;;;125.88;42.05;;;6.20;99.90;;;;;;5049071;28;20380;-56
2022/11/26 09:49:19;;;;;;;113.53;41.40;;;6.20;99.90;;;;;;5055634;28;20154;-55
2022/11/26 09:51:48;;;;;;;110.43;41.28;;;;;;;;;;5055420;28;20075;-53
2022/11/26 09:54:19;;;;;;;120.97;43.53;;;6.30;99.90;;;;;;5054472;28;20037;-55
2022/11/26 09:56:49;;;;;;;106.88;40.95;;;6.30;99.90;;;;;;5053142;28;20079;-55
2022/11/26 09:59:18;;;;;;;121.78;44.25;;;6.40;99.90;;;;;;5053602;28;20044;-55
2022/11/26 10:01:44;;;;;;;106.93;40.08;;;;;;;;;;5050198;28;20122;-56
2022/11/26 10:04:20;;;;;;;122.53;43.65;;;6.40;99.90;;;;;;5053472;28;20087;-54
2022/11/26 10:07:04;;;;;;;102.00;40.80;;;6.40;99.90;;;;;;5049595;28;20048;-54
2022/11/26 10:10:09;;;;;;;109.45;42.47;;;6.50;99.90;;;;;;5051659;28;20088;-56
2022/11/26 10:12:45;;;;;;;108.43;41.03;;;;;;;;;;5051218;28;20090;-56
2022/11/26 10:15:32;;;;;;;101.22;40.80;;;6.60;99.90;;;;;;5025960;28;20041;-55
2022/11/26 10:18:27;;;;;;;98.90;41.17;;;6.60;99.90;;;;;;5048035;28;20051;-55
2022/11/26 10:21:14;;;;;;;116.85;46.42;;;6.80;99.90;;;;;;5053110;28;20128;-54
2022/11/26 10:23:56;;;;;;;99.85;42.20;;;6.70;99.90;;;;;;5052037;28;20041;-54
2022/11/26 10:26:33;;;;;;;107.28;43.22;;;6.80;99.90;;;;;;5034207;28;20070;-52
2022/11/26 10:29:10;;;;;;;106.18;43.67;;;6.80;99.90;;;;;;5052160;28;20045;-55
2022/11/26 10:31:39;;;;;;;120.13;46.20;;;6.90;99.90;;;;;;5050179;28;20072;-56
2022/11/26 10:34:13;;;;;;;109.25;45.42;;;6.80;99.90;;;;;;5015548;28;20083;-55
2022/11/26 10:36:41;;;;;;;104.53;42.28;;;7.00;99.90;;;;;;5050706;28;20037;-55
2022/11/26 10:39:12;;;;;;;104.67;44.57;;;7.10;99.90;;;;;;5043001;28;20041;-56
2022/11/26 10:41:39;;;;;;;98.35;42.47;;;7.00;99.90;;;;;;5034866;28;20307;-54
2022/11/26 10:44:32;;;;;;;101.95;44.65;;;7.00;99.90;;;;;;5046049;28;20041;-56
2022/11/26 10:47:16;;;;;;;113.88;45.28;;;7.20;99.90;;;;;;5037247;28;20044;-52
2022/11/26 10:49:42;;;;;;;88.78;41.80;;;7.10;99.90;;;;;;5055271;28;20084;-53
2022/11/26 10:52:08;;;;;;;108.80;44.50;;;7.10;99.90;;;;;;5055025;28;20076;-53
2022/11/26 10:54:36;;;;;;;91.13;42.22;;;7.10;99.90;;;;;;5056133;28;20123;-51
2022/11/26 10:57:05;;;;;;;;;;;7.20;99.90;;;;;;5056293;28;20041;-53
2022/11/26 10:59:42;;;;;;;87.97;39.22;;;7.20;99.90;;;;;;5055568;28;19924;-51
2022/11/26 11:02:25;;;;;;;86.27;40.20;;;7.30;99.90;;;;;;5053816;28;20507;-56
2022/11/26 11:04:58;;;;;;;79.07;40.63;;;7.40;99.90;;;;;;5051416;28;20054;-55
2022/11/26 11:07:32;;;;;;;83.32;38.45;;;7.40;99.90;;;;;;5052224;28;20051;-55
2022/11/26 11:10:24;;;;;;;81.15;38.90;;;7.40;99.90;;;;;;5054631;28;20043;-56
2022/11/26 11:12:58;;;;;;;78.28;36.38;;;7.40;99.90;;;;;;5054578;28;20048;-55
2022/11/26 11:15:27;;;;;;;75.53;36.65;;;7.30;99.90;;;;;;5055697;28;20045;-53
2022/11/26 11:17:54;;;;;;;71.97;36.17;;;7.40;99.90;;;;;;5054522;28;20548;-55
2022/11/26 11:20:29;;;;;;;78.63;36.92;;;7.40;99.90;;;;;;5053694;28;20056;-56
2022/11/26 11:23:08;;;;;;;70.22;34.90;;;7.50;99.90;;;;;;5053633;28;20509;-55
2022/11/26 11:25:37;;;;;;;69.90;36.50;;;7.60;99.90;;;;;;5054431;28;20045;-55
2022/11/26 11:28:11;;;;;;;74.47;35.03;;;7.60;99.90;;;;;;5053548;28;20045;-56
2022/11/26 11:30:38;;;;;;;71.03;36.70;;;7.60;99.90;;;;;;5052578;28;20084;-54
2022/11/26 11:33:23;;;;;;;74.60;36.70;;;7.80;99.90;;;;;;5053224;28;20056;-55
2022/11/26 11:36:13;;;;;;;73.10;36.47;;;7.80;99.90;;;;;;5054875;28;20044;-55
2022/11/26 11:38:49;;;;;;;75.28;37.17;;;7.90;99.90;;;;;;5053642;28;20041;-53
2022/11/26 11:41:20;;;;;;;71.00;36.53;;;7.90;99.90;;;;;;5053124;28;20052;-56
2022/11/26 11:43:46;;;;;;;70.63;34.03;;;8.00;99.90;;;;;;5055732;28;20190;-54
2022/11/26 11:46:37;;;;;;;62.35;30.65;;;7.90;99.90;;;;;;5041891;28;20121;-54
2022/11/26 11:49:36;;;;;;;58.50;31.83;;;8.00;99.90;;;;;;5038238;28;20054;-56
2022/11/26 11:52:14;;;;;;;63.33;32.90;;;8.00;99.90;;;;;;5040136;28;20044;-55
2022/11/26 11:54:59;;;;;;;57.97;30.75;;;7.90;99.90;;;;;;5050743;28;20121;-52
2022/11/26 11:57:54;;;;;;;54.90;29.73;;;8.00;99.90;;;;;;5043441;28;20454;-51
2022/11/26 12:00:33;;;;;;;60.45;30.83;;;8.00;99.90;;;;;;5040750;28;20063;-52
2022/11/26 12:03:16;;;;;;;57.63;31.33;;;8.00;99.90;;;;;;5035816;28;20049;-51
2022/11/26 12:06:14;;;;;;;54.63;29.17;;;8.10;99.90;;;;;;5046202;28;20044;-51
2022/11/26 12:08:49;;;;;;;53.85;28.55;;;8.00;99.90;;;;;;5054379;28;20052;-53
2022/11/26 12:11:29;;;;;;;49.72;29.38;;;8.10;99.90;;;;;;5052755;28;20116;-54
2022/11/26 12:14:11;;;;;;;51.55;27.02;;;8.10;99.90;;;;;;5041290;28;20042;-56
2022/11/26 12:16:41;;;;;;;45.65;24.85;;;8.00;99.90;;;;;;5039280;28;20048;-56
2022/11/26 12:19:17;;;;;;;47.60;26.23;;;8.00;99.90;;;;;;5054615;28;20048;-55
2022/11/26 12:21:55;;;;;;;46.22;24.70;;;8.00;99.90;;;;;;5054520;28;20099;-54
2022/11/26 12:24:45;;;;;;;46.35;24.13;;;8.00;99.90;;;;;;5053875;28;20461;-56
2022/11/26 12:27:30;;;;;;;48.33;24.20;;;8.00;99.90;;;;;;5011915;28;20506;-55
2022/11/26 12:30:02;;;;;;;40.70;24.20;;;8.00;99.90;;;;;;5053517;28;20094;-55
2022/11/26 12:32:53;;;;;;;40.90;23.55;;;8.00;99.90;;;;;;5054069;28;20056;-56
2022/11/26 12:35:34;;;;;;;48.03;24.77;;;8.00;99.90;;;;;;5034936;28;20045;-53
2022/11/26 12:38:17;;;;;;;43.35;24.02;;;8.00;99.90;;;;;;5053049;28;20102;-53
2022/11/26 12:40:51;;;;;;;47.53;23.90;;;8.10;99.90;;;;;;5050886;28;20107;-55
2022/11/26 12:43:32;;;;;;;40.75;22.73;;;8.10;99.90;;;;;;5052584;28;20041;-52
2022/11/26 12:46:07;;;;;;;42.67;22.00;;;8.00;99.90;;;;;;5053080;28;20045;-56
2022/11/26 12:48:46;;;;;;;39.58;22.52;;;8.00;99.90;;;;;;5038608;28;20081;-56
2022/11/26 12:51:27;;;;;;;40.33;21.88;;;8.10;99.90;;;;;;5052517;28;20539;-56
2022/11/26 12:54:01;;;;;;;42.40;23.55;;;8.10;99.90;;;;;;5035179;28;20055;-55
2022/11/26 12:56:46;;;;;;;41.85;23.02;;;8.10;99.90;;;;;;5038948;28;20041;-53
2022/11/26 12:59:23;;;;;;;45.28;23.65;;;8.10;99.90;;;;;;5047821;28;20041;-56
2022/11/26 13:01:49;;;;;;;43.58;24.38;;;8.20;99.90;;;;;;5037241;28;20037;-56
2022/11/26 13:04:18;;;;;;;39.88;21.73;;;8.10;99.90;;;;;;5053990;28;20437;-54
2022/11/26 13:07:18;;;;;;;40.97;22.73;;;8.20;99.90;;;;;;5053110;28;20545;-51